El Dorado, Arkansas
Current Conditions -  °F | °C
As of 5:53 PM on Saturday 20 Dec 2014 (Local Time) from KELD Reporting Station
Few Clouds Few Clouds  
Wind Chill: 44°   Ceiling: Unl
Heat Index: 44°   Visibility: 10mi
Dew Point: 42°   Wind: 3mph
Humidity: 93%   Direction: 350°N
Pressure: 30.2"   Gusts: NA
Location:  33.21°N, 92.66°W
Report Text: KELD 202353Z AUTO 35003KT 10SM FEW032 07/06 A3020 RMK AO2 SLP226 T00670056 10133 20061 52005
Loading
Personal Weather Stations






























Interactive Weather Map New forecast layout! Learn more

10-Day Weather Forecast

Advertisements
Track Severe Weather on mobile